This is the latest recevied weather packets stored in our database for station/object DD3UTS-13. If no packets are shown the sender has not sent any weather packets the latest 10 day(s).
| Time | Temp. | Humidity | Pressure | Rain* | Wind** | Luminosity | Snow |
|---|---|---|---|---|---|---|---|
| 1777681832 | 10.56° C | 56% | 1024.1 hPa | 0 mm | - | 0 W/m² | - |
| 1777681532 | 10.56° C | 57% | 1024.1 hPa | 0 mm | - | 0 W/m² | - |
| 1777681231 | 9.44° C | 58% | 1024.1 hPa | 0 mm | - | 0 W/m² | - |
| 1777680931 | 9.44° C | 60% | 1024.1 hPa | 0 mm | - | 0 W/m² | - |
| 1777680631 | 9.44° C | 59% | 1024.1 hPa | 0 mm | - | 0 W/m² | - |
| 1777680332 | 10.56° C | 56% | 1024.2 hPa | 0 mm | - | 0 W/m² | - |
| 1777680032 | 10.56° C | 56% | 1024.1 hPa | 0 mm | - | 0 W/m² | - |
| 1777679732 | 10.56° C | 57% | 1024.2 hPa | 0 mm | - | 0 W/m² | - |
| 1777679431 | 10.56° C | 56% | 1024.2 hPa | 0 mm | - | 0 W/m² | - |
| 1777679132 | 11.11° C | 55% | 1024.2 hPa | 0 mm | - | 0 W/m² | - |
| 1777678832 | 11.11° C | 56% | 1024.3 hPa | 0 mm | - | 0 W/m² | - |
| 1777678532 | 11.11° C | 57% | 1024.3 hPa | 0 mm | - | 0 W/m² | - |
| 1777678232 | 10.56° C | 58% | 1024.3 hPa | 0 mm | - | 0 W/m² | - |
| 1777677932 | 10.56° C | 59% | 1024.3 hPa | 0 mm | - | 0 W/m² | - |
| 1777677632 | 10° C | 60% | 1024.4 hPa | 0 mm | - | 0 W/m² | - |
| 1777677333 | 10° C | 62% | 1024.4 hPa | 0 mm | - | 0 W/m² | - |
| 1777677032 | 9.44° C | 62% | 1024.4 hPa | 0 mm | - | 0 W/m² | - |
| 1777676731 | 9.44° C | 63% | 1024.4 hPa | 0 mm | - | 0 W/m² | - |
| 1777676433 | 9.44° C | 62% | 1024.5 hPa | 0 mm | - | 0 W/m² | - |
| 1777676131 | 9.44° C | 63% | 1024.5 hPa | 0 mm | - | 0 W/m² | - |
| 1777675832 | 9.44° C | 64% | 1024.5 hPa | 0 mm | - | 0 W/m² | - |
| 1777675532 | 8.89° C | 65% | 1024.5 hPa | 0 mm | - | 0 W/m² | - |
| 1777675233 | 8.89° C | 63% | 1024.5 hPa | 0 mm | - | 0 W/m² | - |
| 1777674932 | 9.44° C | 62% | 1024.5 hPa | 0 mm | - | 0 W/m² | - |
| 1777674632 | 10.56° C | 60% | 1024.5 hPa | 0 mm | - | 0 W/m² | - |
* Rain latest 24 hours (hover to see other rain measurements)
** Current wind speed in m/s (hover to see current wind gust speed)